MST,Max TemperatureF,Mean TemperatureF,Min TemperatureF,Max Dew PointF,MeanDew PointF,Min DewpointF,Max Humidity, Mean Humidity, Min Humidity, Max Sea Level PressureIn, Mean Sea Level PressureIn, Min Sea Level PressureIn, Max VisibilityMiles, Mean VisibilityMiles, Min VisibilityMiles, Max Wind SpeedMPH, Mean Wind SpeedMPH, Max Gust SpeedMPH,PrecipitationIn, CloudCover, Events, WindDirDegrees
2014-1-1,35,20,3,25,12,-2,93,63,33,30.39,30.23,30.09,10,10,2,16,4,23,0.00,4,,287
2014-1-2,23,8,-7,10,-4,-29,100,63,32,30.48,30.39,30.31,10,10,7,6,1,,0.00,0,,84
2014-1-3,21,7,-7,12,-3,-24,100,67,36,30.30,30.11,29.88,10,10,6,6,0,,0.00,1,,39
2014-1-4,30,15,0,27,4,-11,100,66,36,30.01,29.85,29.74,10,8,0,28,5,41,0.00,3,,273
2014-1-5,15,2,-11,7,-7,-29,100,63,34,30.28,30.13,30.00,10,9,1,16,4,24,0.00,3,,274
2014-1-6,17,2,-13,1,-15,-31,100,45,21,30.44,30.37,30.28,10,10,7,9,2,,0.00,0,,27
2014-1-7,15,3,-9,5,-10,-31,92,56,26,30.39,30.26,30.11,10,10,9,6,1,,0.00,1,,132
2014-1-8,28,18,8,19,9,1,100,74,50,30.15,30.10,30.05,10,10,5,8,1,,0.00,6,,52
2014-1-9,26,19,12,25,15,3,100,80,55,30.08,29.98,29.84,10,7,2,22,2,29,0.00,7,,227
2014-1-10,28,19,10,21,11,0,93,63,46,30.15,29.95,29.84,10,8,1,22,10,32,0.00,6,,265
2014-1-11,32,19,6,25,10,-8,100,71,44,30.30,30.18,29.99,10,10,8,9,3,,0.00,0,,11
2014-1-12,28,17,6,21,9,-4,100,68,43,30.17,29.95,29.81,10,9,0,26,5,32,0.00,3,,261
2014-1-13,30,18,6,18,6,-9,100,60,40,30.36,30.27,30.18,10,10,10,15,8,23,0.00,1,,303
2014-1-14,33,16,0,19,4,-18,100,57,36,30.48,30.41,30.31,10,10,7,13,4,24,0.00,1,,321
2014-1-15,37,18,-2,21,3,-18,100,56,38,30.48,30.39,30.29,10,10,10,15,3,21,0.00,0,,263
2014-1-16,33,16,-2,18,2,-24,100,59,32,30.42,30.35,30.29,10,10,7,8,3,,0.00,0,,82
2014-1-17,26,11,-4,12,0,-20,100,67,42,30.42,30.34,30.27,10,10,6,7,1,,0.00,0,,40
2014-1-18,26,10,-5,10,-3,-29,100,62,27,30.44,30.38,30.30,10,10,7,8,1,,0.00,0,,44
2014-1-19,24,8,-7,9,-8,-92,100,57,4,30.49,30.39,30.31,10,10,4,6,1,,0.00,0,,17
2014-1-20,26,8,-9,12,-4,-29,100,65,32,30.56,30.42,30.33,10,10,7,7,1,,0.00,0,,53
2014-1-21,21,5,-11,9,-7,-27,100,63,29,30.63,30.52,30.39,10,10,8,7,1,,0.00,0,,10
2014-1-22,15,0,-16,9,-14,-53,100,52,6,30.39,30.20,30.05,10,10,7,8,1,,0.00,0,,40
2014-1-23,26,10,-7,9,-4,-29,100,57,25,30.49,30.28,30.07,10,10,8,7,1,,0.00,1,,41
2014-1-24,19,3,-13,9,-8,-54,100,60,8,30.62,30.53,30.45,10,10,8,7,1,,0.00,0,,5
2014-1-25,24,8,-7,9,-8,-65,100,54,4,30.52,30.36,30.21,10,10,9,6,1,,0.00,0,,21
2014-1-26,28,12,-5,12,-1,-29,100,65,29,30.20,30.11,30.01,10,10,8,6,1,,0.00,0,,18
2014-1-27,39,18,-4,27,7,-20,100,65,36,30.07,29.97,29.86,10,10,6,22,4,33,0.00,3,,293
2014-1-28,28,16,3,14,-3,-11,74,43,22,30.24,30.16,29.99,10,10,3,14,7,18,0.00,1,,330
2014-1-29,26,10,-5,21,2,-24,100,62,34,30.25,30.11,29.85,10,10,9,8,2,,0.00,3,,44
2014-1-30,37,30,24,30,27,18,93,79,70,29.86,29.73,29.60,10,8,2,25,4,33,0.07,8,,222
2014-1-31,33,27,21,28,23,14,93,83,74,29.71,29.67,29.59,10,6,0,14,8,24,0.07,6,,218